createdAt,value
2018-03-08T00:00:18.401Z,49.07
2018-03-08T00:02:46.656Z,50.37
2018-03-08T00:05:20.759Z,51.80
2018-03-08T00:07:49.036Z,55.73
2018-03-08T00:10:17.243Z,54.57
2018-03-08T00:12:45.452Z,52.20
2018-03-08T00:15:13.732Z,50.60
2018-03-08T00:17:42.001Z,51.10
2018-03-08T00:20:10.196Z,50.23
2018-03-08T00:22:38.457Z,46.47
2018-03-08T00:25:06.715Z,46.87
2018-03-08T00:27:35.104Z,46.90
2018-03-08T00:30:03.318Z,47.10
2018-03-08T00:32:31.525Z,46.23
2018-03-08T00:34:59.783Z,45.33
2018-03-08T00:37:27.991Z,44.70
2018-03-08T00:39:56.996Z,42.63
2018-03-08T00:42:25.776Z,42.50
2018-03-08T00:44:54.057Z,44.07
2018-03-08T00:47:22.262Z,40.57
2018-03-08T00:49:50.520Z,43.50
2018-03-08T00:52:18.741Z,42.67
2018-03-08T00:54:47.606Z,40.03
2018-03-08T00:57:15.849Z,38.13
2018-03-08T01:02:44.549Z,37.90
2018-03-08T01:05:12.821Z,38.13
2018-03-08T01:07:41.063Z,40.43
2018-03-08T01:10:19.818Z,40.00
2018-03-08T01:13:18.423Z,39.57
2018-03-08T01:15:46.786Z,39.77
2018-03-08T01:18:14.991Z,36.70
2018-03-08T01:20:43.191Z,40.20
2018-03-08T01:23:11.456Z,39.90
2018-03-08T01:25:39.681Z,35.80
2018-03-08T01:28:20.776Z,37.90
2018-03-08T01:30:49.148Z,36.90
2018-03-08T01:33:17.409Z,37.60
2018-03-08T01:35:45.793Z,39.20
2018-03-08T01:38:14.017Z,37.23
2018-03-08T01:43:42.514Z,36.03
2018-03-08T01:46:19.028Z,33.27
2018-03-08T01:48:47.270Z,35.27
2018-03-08T01:51:15.558Z,34.43
2018-03-08T01:53:44.546Z,36.90
2018-03-08T01:56:19.562Z,35.73
2018-03-08T01:58:47.817Z,34.73
2018-03-08T02:01:16.057Z,33.07
2018-03-08T02:03:44.305Z,30.90
2018-03-08T02:06:13.357Z,31.60
2018-03-08T02:08:41.696Z,32.20
2018-03-08T02:11:19.233Z,28.90
2018-03-08T02:13:47.564Z,31.83
2018-03-08T02:16:15.781Z,34.40
2018-03-08T02:18:44.002Z,33.70
2018-03-08T02:21:13.021Z,32.43
2018-03-08T02:26:41.380Z,33.27
2018-03-08T02:29:09.624Z,32.97
2018-03-08T02:31:37.869Z,31.87
2018-03-08T02:34:19.200Z,29.93
2018-03-08T02:36:48.163Z,34.27
2018-03-08T02:39:16.422Z,29.60
2018-03-08T02:41:44.709Z,30.60
2018-03-08T02:44:12.958Z,29.43
2018-03-08T02:46:41.213Z,29.80
2018-03-08T02:49:11.145Z,29.13
2018-03-08T02:54:41.111Z,28.60
2018-03-08T02:57:09.330Z,29.57
2018-03-08T02:59:38.458Z,27.70
2018-03-08T03:02:07.578Z,30.07
2018-03-08T03:04:35.796Z,30.57
2018-03-08T03:07:04.953Z,31.80
2018-03-08T03:09:33.165Z,32.90
2018-03-08T03:12:02.180Z,27.90
2018-03-08T03:14:30.466Z,27.53
2018-03-08T03:16:58.936Z,28.53
2018-03-08T03:19:27.244Z,30.70
2018-03-08T03:21:55.898Z,30.10
2018-03-08T03:24:24.156Z,33.60
2018-03-08T03:26:53.197Z,33.40
2018-03-08T03:29:21.473Z,29.27
2018-03-08T03:31:49.720Z,30.77
2018-03-08T03:34:18.841Z,31.83
2018-03-08T03:36:48.205Z,30.33
2018-03-08T03:39:18.056Z,30.50
2018-03-08T03:41:46.913Z,30.13
2018-03-08T03:44:15.169Z,29.37
2018-03-08T03:46:44.275Z,30.60
2018-03-08T03:49:13.381Z,27.43
2018-03-08T03:51:41.600Z,30.80
2018-03-08T03:54:09.991Z,30.00
2018-03-08T03:56:38.295Z,30.43
2018-03-08T03:59:07.437Z,33.07
2018-03-08T04:01:35.649Z,29.30
2018-03-08T04:04:03.951Z,29.90
2018-03-08T04:06:32.233Z,28.70
2018-03-08T04:09:00.516Z,30.10
2018-03-08T04:11:28.734Z,31.20
2018-03-08T04:13:57.157Z,28.70
2018-03-08T04:16:25.443Z,29.20
2018-03-08T04:18:54.155Z,28.27
2018-03-08T04:21:22.552Z,30.17
2018-03-08T04:23:50.762Z,29.60
2018-03-08T04:26:19.039Z,28.80
2018-03-08T04:29:17.261Z,27.20
2018-03-08T04:31:45.475Z,30.57
2018-03-08T04:34:14.484Z,29.23
2018-03-08T04:36:43.590Z,28.87
2018-03-08T04:39:11.859Z,31.67
2018-03-08T04:41:40.076Z,31.27
2018-03-08T04:44:18.759Z,30.30
2018-03-08T04:46:47.040Z,30.90
2018-03-08T04:49:15.263Z,29.73
2018-03-08T04:51:43.585Z,31.50
2018-03-08T04:54:11.873Z,32.60
2018-03-08T04:59:40.930Z,29.60
2018-03-08T05:02:09.150Z,27.00
2018-03-08T05:04:37.407Z,30.97
2018-03-08T05:07:05.702Z,29.70
2018-03-08T05:09:34.414Z,30.43
2018-03-08T05:12:02.762Z,29.97
2018-03-08T05:14:31.037Z,29.10
2018-03-08T05:16:59.264Z,29.50
2018-03-08T05:19:27.542Z,29.33
2018-03-08T05:21:56.524Z,30.70
2018-03-08T05:27:26.151Z,29.47
2018-03-08T05:29:54.482Z,33.00
2018-03-08T05:32:22.717Z,33.70
2018-03-08T05:34:50.970Z,33.53
2018-03-08T05:37:19.213Z,34.67
2018-03-08T05:40:18.143Z,34.03
2018-03-08T05:42:46.368Z,38.70
2018-03-08T05:45:14.572Z,35.60
2018-03-08T05:47:42.925Z,35.33
2018-03-08T05:50:11.158Z,32.60
2018-03-08T05:55:39.465Z,32.13
2018-03-08T05:58:08.493Z,32.10
2018-03-08T06:00:36.756Z,30.47
2018-03-08T06:03:05.864Z,32.77
2018-03-08T06:05:34.108Z,34.87
2018-03-08T06:08:18.685Z,33.00
2018-03-08T06:10:46.991Z,33.90
2018-03-08T06:13:15.233Z,36.10
2018-03-08T06:15:43.609Z,35.50
2018-03-08T06:18:13.410Z,34.90
2018-03-08T06:20:41.718Z,32.53
2018-03-08T06:23:10.019Z,32.03
2018-03-08T06:25:38.253Z,30.93
2018-03-08T06:28:06.479Z,30.23
2018-03-08T06:30:34.725Z,33.80
2018-03-08T06:33:02.985Z,32.07
2018-03-08T06:35:31.201Z,37.47
2018-03-08T06:37:59.421Z,36.40
2018-03-08T06:40:27.697Z,36.80
2018-03-08T06:42:56.135Z,37.40
2018-03-08T06:45:24.458Z,34.80
2018-03-08T06:47:52.680Z,34.40
2018-03-08T06:50:20.965Z,31.13
2018-03-08T06:52:49.195Z,29.43
2018-03-08T06:55:17.423Z,29.97
2018-03-08T06:57:46.553Z,28.27
2018-03-08T07:00:15.302Z,26.60
2018-03-08T07:02:43.675Z,25.63
2018-03-08T07:05:12.610Z,27.30
2018-03-08T07:07:40.834Z,20.70
2018-03-08T07:10:09.108Z,18.97
2018-03-08T07:12:37.345Z,19.90
2018-03-08T07:15:05.552Z,17.07
2018-03-08T07:17:33.829Z,16.47
2018-03-08T07:23:19.469Z,23.70
2018-03-08T07:29:17.854Z,21.93
2018-03-08T07:35:17.419Z,20.93
2018-03-08T07:50:00.579Z,24.07
2018-03-08T07:52:30.218Z,21.10
2018-03-08T07:54:58.452Z,19.50
2018-03-08T07:57:27.434Z,23.13
2018-03-08T08:00:19.031Z,19.57
2018-03-08T08:02:47.297Z,18.70
2018-03-08T08:18:51.086Z,18.77
2018-03-08T08:21:19.351Z,17.77
2018-03-08T08:23:47.595Z,18.27
2018-03-08T08:26:16.578Z,20.70
2018-03-08T08:28:44.885Z,20.70
2018-03-08T08:31:13.221Z,21.30
2018-03-08T08:33:41.516Z,19.97
2018-03-08T08:36:10.507Z,19.33
2018-03-08T08:38:39.553Z,21.27
2018-03-08T08:41:07.764Z,20.20
2018-03-08T08:43:36.078Z,18.80
2018-03-08T08:46:04.354Z,19.60
2018-03-08T08:48:32.617Z,20.43
2018-03-08T08:51:00.839Z,18.23
2018-03-08T08:53:29.055Z,19.03
2018-03-08T08:55:58.081Z,18.83
2018-03-08T08:58:26.302Z,18.43
2018-03-08T09:00:54.511Z,18.00
2018-03-08T09:03:23.517Z,19.20
2018-03-08T09:05:51.780Z,20.10
2018-03-08T09:08:19.981Z,18.30
2018-03-08T09:15:23.205Z,19.67
2018-03-08T09:17:51.426Z,17.57
2018-03-08T09:20:20.419Z,17.10
2018-03-08T09:22:49.423Z,18.00
2018-03-08T09:25:19.956Z,16.50
2018-03-08T09:27:49.122Z,17.57
2018-03-08T09:30:18.126Z,16.73
2018-03-08T09:32:46.428Z,18.77
2018-03-08T09:35:14.682Z,17.70
2018-03-08T09:37:43.837Z,18.03
2018-03-08T09:40:12.162Z,17.57
2018-03-08T09:42:41.177Z,16.83
2018-03-08T09:45:09.481Z,16.80
2018-03-08T09:47:37.825Z,17.13
2018-03-08T09:50:06.056Z,17.00
2018-03-08T09:52:34.499Z,16.53
2018-03-08T09:55:02.759Z,15.80
2018-03-08T09:57:31.069Z,16.00
2018-03-08T09:59:59.355Z,15.93
2018-03-08T10:02:27.573Z,14.40
2018-03-08T10:04:55.788Z,14.80
2018-03-08T10:07:24.095Z,15.70
2018-03-08T10:09:52.412Z,18.57
2018-03-08T10:12:20.670Z,16.47
2018-03-08T10:14:49.645Z,16.67
2018-03-08T10:17:18.760Z,17.40
2018-03-08T10:19:47.852Z,16.70
2018-03-08T10:22:20.647Z,16.73
2018-03-08T10:24:48.915Z,15.70
2018-03-08T10:27:20.071Z,15.77
2018-03-08T10:29:48.396Z,16.13
2018-03-08T10:32:16.618Z,17.20
2018-03-08T10:34:44.893Z,16.93
2018-03-08T10:37:14.049Z,16.33
2018-03-08T10:39:42.384Z,15.57
2018-03-08T10:42:10.596Z,16.17
2018-03-08T10:44:38.804Z,13.93
2018-03-08T10:47:07.918Z,11.80
2018-03-08T10:52:36.001Z,10.77
2018-03-08T10:55:04.203Z,8.90
2018-03-08T10:57:32.412Z,10.23
2018-03-08T11:00:00.692Z,10.30
2018-03-08T11:05:29.581Z,10.33
2018-03-08T11:07:58.560Z,11.00
2018-03-08T11:10:26.783Z,11.43
2018-03-08T11:12:55.832Z,11.70
2018-03-08T11:15:24.061Z,12.73
2018-03-08T11:17:52.340Z,12.90
2018-03-08T11:20:20.603Z,11.10
2018-03-08T11:23:19.326Z,11.00
2018-03-08T11:26:18.162Z,11.47
2018-03-08T11:32:18.090Z,11.57
2018-03-08T11:38:17.760Z,10.93
2018-03-08T11:43:44.009Z,11.50
2018-03-08T11:46:12.286Z,12.20
2018-03-08T11:48:41.309Z,13.23
2018-03-08T11:51:09.761Z,11.60
2018-03-08T11:53:38.066Z,11.77
2018-03-08T11:56:06.318Z,12.67
2018-03-08T11:58:34.569Z,12.53
2018-03-08T12:01:02.861Z,12.20
2018-03-08T12:03:31.226Z,11.80
2018-03-08T12:06:01.648Z,13.20
2018-03-08T12:08:30.809Z,14.00
2018-03-08T12:10:59.137Z,15.00
2018-03-08T12:13:27.344Z,12.97
2018-03-08T12:15:55.564Z,11.10
2018-03-08T12:18:24.618Z,13.53
2018-03-08T12:20:53.514Z,13.40
2018-03-08T12:23:21.728Z,11.33
2018-03-08T12:25:51.524Z,14.30
2018-03-08T12:28:20.535Z,15.60
2018-03-08T12:30:48.909Z,14.17
2018-03-08T12:33:18.132Z,12.33
2018-03-08T12:35:46.427Z,15.40
2018-03-08T12:38:14.646Z,15.23
2018-03-08T12:43:43.816Z,15.60
2018-03-08T12:46:12.051Z,15.87
2018-03-08T12:48:41.095Z,14.50
2018-03-08T12:51:09.345Z,14.30
2018-03-08T12:53:37.557Z,13.77
2018-03-08T12:56:06.593Z,14.50
2018-03-08T12:58:34.824Z,15.60
2018-03-08T13:01:03.179Z,15.60
2018-03-08T13:24:46.088Z,15.57
2018-03-08T14:10:11.700Z,14.70
2018-03-08T14:28:07.513Z,15.63
2018-03-08T14:39:37.391Z,13.53
2018-03-08T14:42:20.340Z,12.70
2018-03-08T14:45:18.426Z,12.37
2018-03-08T14:48:12.971Z,13.53
2018-03-08T14:50:41.763Z,7.43
2018-03-08T14:53:19.731Z,14.00
2018-03-08T14:55:48.116Z,13.67
2018-03-08T15:01:16.706Z,13.30
2018-03-08T15:13:17.985Z,13.40
2018-03-08T15:22:17.948Z,13.87
2018-03-08T15:34:18.203Z,7.50
2018-03-08T15:37:06.517Z,13.23
2018-03-08T16:00:39.833Z,17.33
2018-03-08T16:03:08.040Z,22.13
2018-03-08T16:05:36.294Z,25.67
2018-03-08T16:21:52.416Z,26.10
2018-03-08T16:24:20.676Z,27.17
2018-03-08T16:27:18.907Z,28.00
2018-03-08T16:30:17.621Z,24.27
2018-03-08T16:32:49.425Z,27.70
2018-03-08T16:35:18.366Z,24.90
2018-03-08T16:37:50.356Z,28.07
2018-03-08T16:40:20.122Z,26.87
2018-03-08T16:43:17.906Z,25.67
2018-03-08T16:52:18.427Z,35.17
2018-03-08T16:58:17.858Z,21.37
2018-03-08T17:01:12.604Z,31.43
2018-03-08T17:34:04.555Z,46.20
2018-03-08T17:41:14.790Z,74.47
2018-03-08T18:02:18.032Z,73.00
2018-03-08T18:08:18.049Z,72.67
2018-03-08T18:11:13.999Z,68.03
2018-03-08T18:17:19.125Z,68.80
2018-03-08T18:23:18.185Z,80.70
2018-03-08T18:26:18.182Z,79.50
2018-03-08T18:28:46.440Z,64.37
2018-03-08T18:31:14.654Z,34.87
2018-03-08T18:33:42.872Z,45.00
2018-03-08T18:36:11.987Z,49.07
2018-03-08T18:38:40.210Z,34.10
2018-03-08T18:41:08.473Z,45.70
2018-03-08T18:46:37.276Z,34.17
2018-03-08T18:49:05.502Z,38.53
2018-03-08T18:51:33.775Z,56.83
2018-03-08T18:54:02.784Z,58.67
2018-03-08T18:56:31.001Z,41.77
2018-03-08T18:58:59.336Z,43.60
2018-03-08T19:01:27.713Z,55.33
2018-03-08T19:03:55.916Z,36.53
2018-03-08T19:06:24.137Z,35.77
2018-03-08T19:08:53.149Z,35.83
2018-03-08T19:11:21.436Z,46.43
2018-03-08T19:14:19.836Z,41.27
2018-03-08T19:17:18.536Z,36.60
2018-03-08T19:19:46.801Z,40.60
2018-03-08T19:22:21.199Z,42.53
2018-03-08T19:25:18.025Z,33.00
2018-03-08T19:27:46.237Z,44.63
2018-03-08T19:30:20.777Z,31.50
2018-03-08T19:33:19.175Z,35.27
2018-03-08T19:35:47.500Z,33.57
2018-03-08T19:38:21.846Z,33.63
2018-03-08T19:40:50.227Z,37.10
2018-03-08T19:43:18.478Z,32.10
2018-03-08T19:45:46.865Z,37.30
2018-03-08T19:48:15.125Z,32.80
2018-03-08T19:50:43.376Z,45.93
2018-03-08T19:53:19.546Z,42.13
2018-03-08T19:55:47.771Z,33.03
2018-03-08T19:58:15.991Z,36.77
2018-03-08T20:00:44.269Z,41.27
2018-03-08T20:03:12.592Z,35.77
2018-03-08T20:05:40.814Z,41.37
2018-03-08T20:08:19.631Z,35.93
2018-03-08T20:10:49.385Z,39.07
2018-03-08T20:13:17.606Z,40.20
2018-03-08T20:15:46.746Z,35.60
2018-03-08T20:18:14.966Z,38.67
2018-03-08T20:20:44.047Z,33.70
2018-03-08T20:23:12.375Z,36.57
2018-03-08T20:25:40.599Z,38.57
2018-03-08T20:28:08.849Z,33.03
2018-03-08T20:30:37.052Z,36.40
2018-03-08T20:33:05.270Z,37.20
2018-03-08T20:38:34.557Z,32.07
2018-03-08T20:41:03.568Z,38.80
2018-03-08T20:43:32.591Z,35.23
2018-03-08T20:46:00.853Z,33.63
2018-03-08T20:48:29.058Z,39.77
2018-03-08T20:50:57.280Z,36.87
2018-03-08T20:53:26.289Z,36.30
2018-03-08T20:55:54.501Z,32.20
2018-03-08T20:58:22.844Z,35.83
2018-03-08T21:00:51.112Z,34.23
2018-03-08T21:03:19.535Z,31.97
2018-03-08T21:06:18.142Z,35.27
2018-03-08T21:08:46.373Z,32.23
2018-03-08T21:11:14.599Z,33.83
2018-03-08T21:13:43.727Z,36.20
2018-03-08T21:16:12.002Z,37.13
2018-03-08T21:18:40.285Z,37.53
2018-03-08T21:21:08.860Z,37.37
2018-03-08T21:23:37.132Z,35.37
2018-03-08T21:26:05.352Z,33.03
2018-03-08T21:28:34.274Z,36.50
2018-03-08T21:31:19.788Z,35.60
2018-03-08T21:33:48.058Z,31.90
2018-03-08T21:36:16.277Z,31.27
2018-03-08T21:38:44.510Z,33.90
2018-03-08T21:41:12.894Z,27.60
2018-03-08T21:43:41.723Z,30.10
2018-03-08T21:46:09.966Z,33.03
2018-03-08T21:48:38.378Z,30.83
2018-03-08T21:51:06.625Z,31.93
2018-03-08T21:53:34.856Z,30.20
2018-03-08T21:56:03.867Z,26.93
2018-03-08T21:58:32.083Z,31.13
2018-03-08T22:01:20.332Z,28.97
2018-03-08T22:03:49.478Z,33.93
2018-03-08T22:06:25.011Z,30.00
2018-03-08T22:08:54.045Z,30.60
2018-03-08T22:11:22.274Z,29.47
2018-03-08T22:14:18.261Z,32.60
2018-03-08T22:16:46.489Z,28.03
2018-03-08T22:19:14.723Z,26.63
2018-03-08T22:21:42.980Z,28.63
2018-03-08T22:24:11.216Z,26.07
2018-03-08T22:29:40.784Z,29.17
2018-03-08T22:32:09.014Z,27.30
2018-03-08T22:34:37.235Z,27.10
2018-03-08T22:37:05.490Z,27.13
2018-03-08T22:39:33.736Z,23.93
2018-03-08T22:42:01.959Z,27.07
2018-03-08T22:44:30.294Z,27.93
2018-03-08T22:46:58.516Z,26.00
2018-03-08T22:49:26.817Z,27.67
2018-03-08T22:51:55.853Z,25.23
2018-03-08T22:54:24.110Z,24.33
2018-03-08T22:57:18.158Z,25.03
2018-03-08T22:59:46.446Z,23.87
2018-03-08T23:02:27.990Z,25.97
2018-03-08T23:04:56.317Z,26.23
2018-03-08T23:07:25.308Z,28.77
2018-03-08T23:09:54.618Z,29.83
2018-03-08T23:12:23.077Z,24.50
2018-03-08T23:14:52.089Z,25.90
2018-03-08T23:17:20.368Z,32.23
2018-03-08T23:19:48.674Z,24.50
2018-03-08T23:22:20.533Z,21.07
2018-03-08T23:24:48.806Z,28.27
2018-03-08T23:27:17.057Z,29.43
2018-03-08T23:29:45.485Z,26.23
2018-03-08T23:32:13.746Z,28.47
2018-03-08T23:34:41.953Z,24.73
2018-03-08T23:37:19.488Z,25.60
2018-03-08T23:39:47.797Z,24.03
2018-03-08T23:42:16.016Z,26.60
2018-03-08T23:44:44.310Z,24.57
2018-03-08T23:47:12.553Z,25.63
2018-03-08T23:49:41.602Z,20.60
2018-03-08T23:52:09.867Z,20.87
2018-03-08T23:54:38.153Z,22.00
2018-03-08T23:57:19.915Z,22.20
